Time;durP1;ratioP1;P1;durP2;ratioP2;P2;SDS_P1;SDS_P2;PMS_P1;PMS_P2;Temp;Humidity;BMP_temperature;BMP_pressure;BME280_temperature;BME280_humidity;BME280_pressure;Samples;Min_cycle;Max_cycle;Signal;HPM_P1;HPM_P2
2021/04/10 00:00:55;;;;;;;24.47;9.63;;;4.50;77.10;;;;;;4354695;28;657248;-69
2021/04/10 00:03:43;;;;;;;28.30;9.20;;;4.50;77.30;;;;;;4351796;28;656661;-69
2021/04/10 00:06:31;;;;;;;25.60;9.20;;;4.50;77.50;;;;;;4377399;28;657536;-69
2021/04/10 00:09:18;;;;;;;23.57;8.57;;;4.40;77.90;;;;;;4353555;28;656673;-69
2021/04/10 00:12:06;;;;;;;26.00;8.83;;;4.40;78.10;;;;;;4377786;28;657788;-69
2021/04/10 00:14:53;;;;;;;24.08;9.30;;;4.40;78.10;;;;;;4395582;28;656655;-69
2021/04/10 00:17:41;;;;;;;24.73;9.17;;;4.30;78.80;;;;;;4429756;28;657538;-69
2021/04/10 00:20:28;;;;;;;25.07;8.37;;;4.30;78.80;;;;;;4405836;28;656829;-69
2021/04/10 00:23:17;;;;;;;19.40;7.70;;;4.20;79.10;;;;;;4430030;28;657367;-69
2021/04/10 00:26:04;;;;;;;20.70;8.63;;;4.20;79.00;;;;;;4409248;28;657421;-69
2021/04/10 00:28:51;;;;;;;24.37;9.77;;;4.10;80.10;;;;;;4430364;28;655998;-70
2021/04/10 00:31:38;;;;;;;22.73;8.27;;;4.20;80.30;;;;;;4410935;28;656839;-69
2021/04/10 00:34:25;;;;;;;20.30;8.50;;;4.10;80.20;;;;;;4430257;28;657237;-69
2021/04/10 00:37:13;;;;;;;21.07;8.20;;;4.10;80.30;;;;;;4410569;28;656872;-69
2021/04/10 00:40:01;;;;;;;22.07;8.77;;;4.10;80.70;;;;;;4434395;28;657007;-69
2021/04/10 00:42:48;;;;;;;23.33;8.53;;;4.10;80.90;;;;;;4408865;28;657057;-69
2021/04/10 00:45:36;;;;;;;21.40;8.50;;;4.00;81.60;;;;;;4430713;28;656967;-69
2021/04/10 00:48:23;;;;;;;22.57;8.30;;;4.00;82.30;;;;;;4411018;28;656731;-69
2021/04/10 00:51:10;;;;;;;22.40;8.00;;;4.00;82.30;;;;;;4434839;28;656868;-69
2021/04/10 00:53:57;;;;;;;24.93;8.47;;;3.90;82.20;;;;;;4409890;28;656919;-68
2021/04/10 00:56:45;;;;;;;18.87;7.30;;;3.90;83.80;;;;;;4433040;28;657458;-69
2021/04/10 00:59:33;;;;;;;23.73;8.73;;;3.90;83.50;;;;;;4403402;28;656695;-69
2021/04/10 01:02:20;;;;;;;20.00;8.47;;;3.80;83.40;;;;;;4430340;28;657566;-69
2021/04/10 01:05:38;;;;;;;19.30;8.57;;;3.80;83.70;;;;;;4419446;28;656870;-68
2021/04/10 01:08:27;;;;;;;18.40;8.20;;;3.80;83.50;;;;;;4407435;28;657157;-69
2021/04/10 01:11:22;;;;;;;25.87;8.60;;;3.80;83.90;;;;;;4402512;28;656980;-69
2021/04/10 01:14:14;;;;;;;26.03;8.33;;;3.70;84.00;;;;;;4406536;28;656942;-69
2021/04/10 01:17:04;;;;;;;20.03;8.40;;;3.60;84.50;;;;;;4404038;28;656544;-69
2021/04/10 01:20:06;;;;;;;24.90;7.97;;;3.60;84.80;;;;;;4406877;28;656533;-70
2021/04/10 01:23:05;;;;;;;23.75;7.57;;;3.60;85.10;;;;;;4382474;28;656780;-69
2021/04/10 01:26:06;;;;;;;20.15;6.85;;;3.50;85.70;;;;;;4385180;28;656327;-68
2021/04/10 01:28:58;;;;;;;15.53;6.63;;;3.40;86.40;;;;;;4386117;28;656730;-69
2021/04/10 01:31:46;;;;;;;19.00;6.73;;;3.40;87.70;;;;;;4406117;28;657287;-69
2021/04/10 01:34:35;;;;;;;17.77;7.47;;;3.40;89.00;;;;;;4409923;28;656410;-69
2021/04/10 01:37:25;;;;;;;14.57;6.43;;;3.40;89.40;;;;;;4409846;28;656611;-68
2021/04/10 01:40:13;;;;;;;17.83;6.80;;;3.30;90.00;;;;;;4410545;28;657642;-69
2021/04/10 01:43:00;;;;;;;16.63;6.50;;;3.40;90.20;;;;;;4429533;28;656951;-69
2021/04/10 01:45:49;;;;;;;18.57;7.10;;;3.30;90.30;;;;;;4412656;28;656702;-69
2021/04/10 01:48:36;;;;;;;16.37;6.87;;;3.30;90.60;;;;;;4430927;28;656309;-70
2021/04/10 01:51:24;;;;;;;21.08;7.57;;;3.30;90.80;;;;;;4405941;28;656727;-69
2021/04/10 01:54:12;;;;;;;25.03;7.63;;;3.20;91.00;;;;;;4429665;28;657076;-69
2021/04/10 01:56:59;;;;;;;17.10;7.10;;;3.20;91.10;;;;;;4407293;28;657124;-69
2021/04/10 01:59:47;;;;;;;16.63;7.05;;;3.20;91.50;;;;;;4427350;28;656750;-69
2021/04/10 02:02:37;;;;;;;15.00;6.37;;;3.10;91.90;;;;;;4407060;28;657266;-70
2021/04/10 02:05:24;;;;;;;14.87;6.20;;;3.10;92.20;;;;;;4409539;28;656534;-69
2021/04/10 02:08:11;;;;;;;17.37;6.83;;;3.10;92.60;;;;;;4429559;28;656272;-70
2021/04/10 02:11:01;;;;;;;18.33;6.43;;;3.10;93.20;;;;;;4398967;28;657186;-69
2021/04/10 02:13:48;;;;;;;16.40;6.80;;;3.10;93.80;;;;;;4409792;28;656554;-69
2021/04/10 02:16:36;;;;;;;13.43;5.87;;;3.00;94.20;;;;;;4429516;28;657282;-70
2021/04/10 02:19:24;;;;;;;13.43;5.60;;;3.10;94.50;;;;;;4398395;28;656460;-70
2021/04/10 02:22:12;;;;;;;15.63;6.30;;;3.00;95.00;;;;;;4418718;28;656432;-69
2021/04/10 02:24:59;;;;;;;17.77;6.53;;;3.00;95.40;;;;;;4407055;28;656922;-69
2021/04/10 02:27:48;;;;;;;17.63;5.93;;;3.00;95.70;;;;;;4423720;28;656334;-69
2021/04/10 02:30:35;;;;;;;22.43;6.07;;;3.00;96.00;;;;;;4410731;28;656362;-70
2021/04/10 02:33:26;;;;;;;17.27;6.53;;;2.90;96.40;;;;;;4411679;28;657074;-69
2021/04/10 02:36:16;;;;;;;17.67;6.53;;;2.90;96.90;;;;;;4404015;28;657010;-69
2021/04/10 02:39:03;;;;;;;16.80;5.73;;;2.90;97.40;;;;;;4405249;28;656336;-69
2021/04/10 02:41:52;;;;;;;14.60;5.93;;;2.80;97.80;;;;;;4429544;28;656815;-69
2021/04/10 02:44:41;;;;;;;20.10;6.40;;;2.80;98.50;;;;;;4407051;28;657289;-69
2021/04/10 02:47:29;;;;;;;13.80;5.50;;;2.80;99.10;;;;;;4405275;28;656389;-70
2021/04/10 02:50:17;;;;;;;10.13;4.90;;;2.70;99.60;;;;;;4428737;28;657006;-69
2021/04/10 02:53:06;;;;;;;13.70;4.90;;;2.70;99.90;;;;;;4409486;28;657183;-69
2021/04/10 02:55:56;;;;;;;13.30;5.40;;;2.70;99.90;;;;;;4403356;28;656913;-69
2021/04/10 02:58:46;;;;;;;14.13;5.73;;;2.70;99.90;;;;;;4407621;28;657041;-69
2021/04/10 03:01:33;;;;;;;11.93;5.03;;;2.70;99.90;;;;;;4406311;28;656271;-69
2021/04/10 03:04:21;;;;;;;13.13;5.53;;;2.60;99.90;;;;;;4426795;28;657433;-69
2021/04/10 03:07:08;;;;;;;13.30;4.87;;;2.60;99.90;;;;;;4407580;28;656640;-68
2021/04/10 03:09:56;;;;;;;12.93;5.20;;;2.60;99.90;;;;;;4431413;28;657368;-69
2021/04/10 03:12:44;;;;;;;13.45;5.32;;;2.60;99.90;;;;;;4411502;28;656609;-69
2021/04/10 03:15:31;;;;;;;13.63;5.70;;;2.50;99.90;;;;;;4420337;28;656684;-70
2021/04/10 03:18:18;;;;;;;11.50;5.50;;;2.40;99.90;;;;;;4410396;28;656310;-69
2021/04/10 03:21:06;;;;;;;11.80;5.17;;;2.40;99.90;;;;;;4419090;28;657353;-69
2021/04/10 03:23:54;;;;;;;12.80;5.73;;;2.40;99.90;;;;;;4396559;28;657099;-69
2021/04/10 03:26:42;;;;;;;14.57;5.30;;;2.40;99.90;;;;;;4422578;28;656286;-69
2021/04/10 03:29:30;;;;;;;13.67;5.50;;;2.40;99.90;;;;;;4407766;28;656950;-69
2021/04/10 03:32:18;;;;;;;11.20;5.00;;;2.30;99.90;;;;;;4413073;28;656958;-69
2021/04/10 03:35:09;;;;;;;11.30;5.40;;;2.30;99.90;;;;;;4428886;28;657485;-69
2021/04/10 03:37:57;;;;;;;11.33;4.70;;;2.30;99.90;;;;;;4406362;28;656363;-69
2021/04/10 03:40:44;;;;;;;13.13;5.47;;;2.30;99.90;;;;;;4404368;28;656542;-69
2021/04/10 03:43:32;;;;;;;12.67;5.70;;;2.30;99.90;;;;;;4431978;28;656305;-69
2021/04/10 03:46:19;;;;;;;12.97;5.17;;;2.30;99.90;;;;;;4410108;28;657873;-69
2021/04/10 03:49:07;;;;;;;15.03;5.87;;;2.20;99.90;;;;;;4430054;28;656377;-69
2021/04/10 03:51:54;;;;;;;12.10;5.40;;;2.20;99.90;;;;;;4412919;28;657056;-69
2021/04/10 03:54:41;;;;;;;13.03;5.70;;;2.20;99.90;;;;;;4430787;28;655991;-69
2021/04/10 03:57:29;;;;;;;16.33;5.27;;;2.10;99.90;;;;;;4395545;28;656657;-69
2021/04/10 04:00:18;;;;;;;13.20;5.50;;;2.20;99.90;;;;;;4425062;28;656834;-69
2021/04/10 04:03:06;;;;;;;12.10;4.53;;;2.10;99.90;;;;;;4407421;28;657539;-69
2021/04/10 04:05:53;;;;;;;10.57;4.63;;;2.10;99.90;;;;;;4412038;28;656236;-69
2021/04/10 04:08:40;;;;;;;12.07;5.30;;;2.10;99.90;;;;;;4427445;28;657293;-70
2021/04/10 04:11:28;;;;;;;11.43;5.43;;;2.00;99.90;;;;;;4413648;28;656708;-68
2021/04/10 04:14:15;;;;;;;14.13;4.83;;;2.10;99.90;;;;;;4426928;28;657188;-69
2021/04/10 04:17:06;;;;;;;10.97;5.00;;;2.10;99.90;;;;;;4404897;28;656530;-68
2021/04/10 04:19:55;;;;;;;16.37;5.00;;;2.10;99.90;;;;;;4409316;28;657355;-69
2021/04/10 04:22:43;;;;;;;10.20;4.30;;;2.20;99.90;;;;;;4418230;28;656547;-69
2021/04/10 04:25:30;;;;;;;10.93;4.73;;;2.20;99.90;;;;;;4431561;28;657132;-69
2021/04/10 04:28:18;;;;;;;12.87;5.47;;;2.30;99.90;;;;;;4421107;28;656332;-68
2021/04/10 04:31:05;;;;;;;9.70;4.88;;;2.30;99.90;;;;;;4429710;28;657344;-70
2021/04/10 04:33:54;;;;;;;13.93;5.43;;;2.40;99.90;;;;;;4412900;28;655630;-69
2021/04/10 04:36:41;;;;;;;10.27;5.00;;;2.50;99.90;;;;;;4428896;28;656739;-69
2021/04/10 04:39:29;;;;;;;13.25;4.90;;;2.60;99.90;;;;;;4407568;28;656778;-69
2021/04/10 04:42:16;;;;;;;9.90;4.30;;;2.80;99.90;;;;;;4430935;28;657252;-68
2021/04/10 04:45:04;;;;;;;10.40;4.30;;;3.00;99.90;;;;;;4396799;28;655586;-69
2021/04/10 04:47:51;;;;;;;8.93;4.80;;;3.20;99.90;;;;;;4429050;28;657365;-70
2021/04/10 04:50:40;;;;;;;9.40;4.20;;;3.50;99.90;;;;;;4402012;28;655454;-69
2021/04/10 04:53:28;;;;;;;8.80;4.47;;;3.70;99.90;;;;;;4420482;28;655242;-68
2021/04/10 04:56:15;;;;;;;11.50;5.83;;;3.90;99.90;;;;;;4426083;28;656333;-69
2021/04/10 04:59:03;;;;;;;9.83;5.10;;;4.20;99.90;;;;;;4405052;28;656944;-68
2021/04/10 05:01:50;;;;;;;13.60;5.10;;;4.30;99.90;;;;;;4433619;28;656832;-70
2021/04/10 05:04:38;;;;;;;17.80;6.77;;;4.50;99.90;;;;;;4406505;28;657073;-68
2021/04/10 05:07:26;;;;;;;11.57;4.40;;;4.80;99.90;;;;;;4429613;28;657138;-69
2021/04/10 05:10:13;;;;;;;12.75;5.00;;;5.10;99.90;;;;;;4406421;28;657077;-69
2021/04/10 05:13:01;;;;;;;13.53;5.20;;;5.50;99.90;;;;;;4427177;28;657282;-70
2021/04/10 05:15:48;;;;;;;13.17;5.13;;;5.70;99.90;;;;;;4403987;28;656751;-69
2021/04/10 05:18:36;;;;;;;16.07;4.87;;;5.80;99.90;;;;;;4428028;28;656926;-70
2021/04/10 05:21:23;;;;;;;12.63;5.40;;;5.90;99.90;;;;;;4411006;28;657106;-70
2021/04/10 05:24:12;;;;;;;12.73;4.80;;;6.00;99.90;;;;;;4427292;28;657137;-69
2021/04/10 05:26:59;;;;;;;11.80;4.60;;;6.20;99.90;;;;;;4408154;28;657703;-69
2021/04/10 05:29:46;;;;;;;10.40;5.33;;;6.30;99.90;;;;;;4428522;28;656753;-69
2021/04/10 05:32:34;;;;;;;14.20;6.10;;;6.50;99.90;;;;;;4411987;28;656605;-69
2021/04/10 05:35:21;;;;;;;15.57;5.23;;;6.70;99.90;;;;;;4430792;28;657277;-69
2021/04/10 05:38:10;;;;;;;12.80;4.97;;;6.90;99.90;;;;;;4408384;28;657024;-69
2021/04/10 05:40:58;;;;;;;9.90;4.80;;;7.10;99.90;;;;;;4421227;28;656980;-69
2021/04/10 05:43:46;;;;;;;11.30;4.63;;;7.30;99.90;;;;;;4425071;28;656084;-69
2021/04/10 05:50:05;;;;;;;13.53;5.53;;;7.70;99.90;;;;;;4378930;28;656036;-70
2021/04/10 05:52:52;;;;;;;12.10;5.50;;;7.90;99.90;;;;;;4429890;28;656477;-68
2021/04/10 06:15:24;;;;;;;9.97;4.57;;;9.30;99.70;;;;;;4404420;28;656727;-69
2021/04/10 06:18:12;;;;;;;9.30;3.97;;;9.50;97.80;;;;;;4405206;28;655633;-69
2021/04/10 06:21:09;;;;;;;11.57;4.03;;;9.60;97.70;;;;;;4410458;28;656551;-69
2021/04/10 06:23:57;;;;;;;7.50;3.60;;;9.70;97.50;;;;;;4407306;28;656451;-70
2021/04/10 06:26:44;;;;;;;7.73;4.03;;;9.80;97.40;;;;;;4404792;28;656193;-69
2021/04/10 06:29:31;;;;;;;13.65;4.20;;;9.90;95.90;;;;;;4409429;28;655339;-70
2021/04/10 06:37:00;;;;;;;11.27;4.20;;;10.20;94.50;;;;;;4404575;28;658294;-70
2021/04/10 06:44:06;;;;;;;7.13;3.00;;;10.70;92.90;;;;;;4366753;28;657064;-69
2021/04/10 06:47:09;;;;;;;4.83;2.60;;;10.90;92.80;;;;;;4390013;28;656289;-69
2021/04/10 06:50:04;;;;;;;10.30;3.30;;;11.10;92.20;;;;;;4395157;28;656184;-70
2021/04/10 06:52:58;;;;;;;10.10;2.83;;;11.20;90.30;;;;;;4407426;28;657959;-70
2021/04/10 06:56:10;;;;;;;6.70;3.07;;;11.40;91.80;;;;;;4407413;28;657907;-69
2021/04/10 06:59:13;;;;;;;8.47;3.10;;;11.50;90.70;;;;;;4379146;28;657672;-69
2021/04/10 07:02:38;;;;;;;6.93;3.20;;;11.60;87.10;;;;;;4404026;28;656680;-69
2021/04/10 07:05:36;;;;;;;8.37;3.30;;;11.80;88.90;;;;;;4407903;28;656557;-70
2021/04/10 07:08:55;;;;;;;7.37;3.13;;;11.90;83.70;;;;;;4411350;28;656448;-70
2021/04/10 07:12:02;;;;;;;10.40;3.33;;;12.10;87.40;;;;;;4415036;28;656930;-70
2021/04/10 07:14:55;;;;;;;10.03;3.70;;;12.20;85.70;;;;;;4387832;28;658394;-69
2021/04/10 07:17:51;;;;;;;6.80;2.93;;;12.40;82.60;;;;;;4391910;28;657737;-69
2021/04/10 07:20:45;;;;;;;8.97;3.27;;;12.50;80.20;;;;;;4415820;28;656360;-69
2021/04/10 07:23:53;;;;;;;5.93;2.90;;;12.60;79.60;;;;;;4392784;28;656278;-67
2021/04/10 07:26:58;;;;;;;8.33;3.23;;;12.60;77.10;;;;;;4404436;28;656910;-70
2021/04/10 07:33:49;;;;;;;7.43;3.33;;;12.90;77.40;;;;;;4371781;28;656953;-68
2021/04/10 07:41:00;;;;;;;6.87;3.27;;;13.30;75.20;;;;;;4375239;28;656829;-68
2021/04/10 07:52:03;;;;;;;6.87;3.17;;;13.70;73.00;;;;;;4392992;28;656812;-67
2021/04/10 07:55:43;;;;;;;11.73;2.90;;;14.00;71.80;;;;;;4374783;28;657032;-67
2021/04/10 07:58:58;;;;;;;5.73;2.87;;;14.20;71.90;;;;;;4396472;28;658119;-70
2021/04/10 08:02:36;;;;;;;7.10;2.70;;;14.60;70.10;;;;;;4393313;28;656329;-71
2021/04/10 08:05:35;;;;;;;4.77;2.47;;;14.90;69.10;;;;;;4393438;28;656951;-71
2021/04/10 08:08:27;;;;;;;6.37;2.43;;;14.80;67.00;;;;;;4396916;28;657300;-67
2021/04/10 08:11:43;;;;;;;6.40;2.90;;;14.70;65.60;;;;;;4398729;28;657396;-70
2021/04/10 08:15:28;;;;;;;7.97;2.80;;;14.60;64.10;;;;;;4433778;28;656200;-71
2021/04/10 08:18:24;;;;;;;3.80;2.33;;;14.70;64.00;;;;;;4410829;28;657042;-69
2021/04/10 08:21:23;;;;;;;5.90;2.70;;;14.70;64.60;;;;;;4400542;28;656853;-68
2021/04/10 08:24:30;;;;;;;5.55;2.83;;;14.90;64.80;;;;;;4403569;28;656275;-71
2021/04/10 08:27:17;;;;;;;7.63;3.00;;;15.20;62.30;;;;;;4389949;28;656880;-70
2021/04/10 08:30:05;;;;;;;5.50;2.90;;;15.00;61.80;;;;;;4433695;28;658042;-67
2021/04/10 08:32:52;;;;;;;6.00;2.30;;;15.10;60.80;;;;;;4413098;28;656501;-68
2021/04/10 08:35:40;;;;;;;5.57;2.73;;;15.30;61.90;;;;;;4431327;28;657530;-70
2021/04/10 08:38:41;;;;;;;4.63;2.80;;;15.50;61.20;;;;;;4413013;28;657261;-70
2021/04/10 08:41:32;;;;;;;6.13;2.77;;;15.60;61.60;;;;;;4403626;28;656975;-70
2021/04/10 08:44:24;;;;;;;9.30;3.10;;;15.70;59.30;;;;;;4408519;28;657295;-70
2021/04/10 08:47:11;;;;;;;4.90;3.00;;;15.60;58.90;;;;;;4399506;28;656554;-69
2021/04/10 08:49:58;;;;;;;10.10;2.93;;;16.00;60.10;;;;;;4401972;28;657410;-68
2021/04/10 08:52:46;;;;;;;6.93;3.10;;;16.00;57.80;;;;;;4430314;28;657188;-68
2021/04/10 08:55:34;;;;;;;7.73;3.07;;;16.20;59.20;;;;;;4406214;28;656931;-68
2021/04/10 08:58:22;;;;;;;7.70;2.70;;;16.50;56.30;;;;;;4414346;28;656541;-67
2021/04/10 09:01:11;;;;;;;5.47;2.77;;;16.30;57.70;;;;;;4433657;28;657115;-69
2021/04/10 09:03:58;;;;;;;9.30;3.37;;;16.50;56.70;;;;;;4401661;28;657744;-70
2021/04/10 09:06:52;;;;;;;4.77;2.73;;;16.60;55.90;;;;;;4431881;28;656931;-72
2021/04/10 09:09:40;;;;;;;6.23;3.03;;;16.60;54.40;;;;;;4407711;28;657447;-70
2021/04/10 09:12:28;;;;;;;5.50;2.80;;;16.60;55.40;;;;;;4410990;28;657185;-67
2021/04/10 09:15:15;;;;;;;9.77;3.03;;;16.70;54.40;;;;;;4431556;28;656792;-67
2021/04/10 09:18:04;;;;;;;4.33;2.33;;;17.00;56.10;;;;;;4411246;28;656543;-69
2021/04/10 09:20:52;;;;;;;6.90;2.53;;;17.40;55.80;;;;;;4411909;28;657064;-67
2021/04/10 09:23:43;;;;;;;7.13;3.30;;;17.40;55.50;;;;;;4425666;28;657217;-68
2021/04/10 09:26:30;;;;;;;5.60;3.40;;;17.30;52.20;;;;;;4400251;28;656892;-69
2021/04/10 09:29:18;;;;;;;5.73;2.70;;;17.40;52.80;;;;;;4406197;28;656366;-69
2021/04/10 09:32:06;;;;;;;6.13;2.93;;;17.70;54.50;;;;;;4430320;28;656220;-69
2021/04/10 09:34:57;;;;;;;5.13;3.07;;;17.80;50.70;;;;;;4408364;28;657640;-68
2021/04/10 09:37:54;;;;;;;5.80;2.50;;;17.80;49.90;;;;;;4407836;28;657664;-67
2021/04/10 09:40:47;;;;;;;5.87;2.60;;;17.80;50.40;;;;;;4382529;28;657228;-68
2021/04/10 09:43:35;;;;;;;8.83;3.50;;;18.10;50.10;;;;;;4395629;28;657456;-69
2021/04/10 09:46:33;;;;;;;7.73;3.57;;;18.00;51.50;;;;;;4411845;28;656550;-69
2021/04/10 09:49:38;;;;;;;7.37;2.87;;;18.20;50.30;;;;;;4401103;28;656497;-70
2021/04/10 09:52:26;;;;;;;9.50;3.20;;;18.20;54.00;;;;;;4407901;28;656672;-70
2021/04/10 09:56:31;;;;;;;5.27;2.90;;;18.20;50.80;;;;;;4406294;28;657140;-67
2021/04/10 10:15:09;;;;;;;6.93;3.00;;;18.20;48.70;;;;;;4368271;28;657736;-69
2021/04/10 10:17:56;;;;;;;5.23;2.60;;;18.30;48.40;;;;;;4374616;28;656813;-67
2021/04/10 10:21:04;;;;;;;6.83;2.60;;;18.10;47.50;;;;;;4417798;28;657432;-70
2021/04/10 10:23:52;;;;;;;5.07;2.57;;;17.80;48.10;;;;;;4382714;28;656825;-66
2021/04/10 10:26:55;;;;;;;5.17;2.43;;;18.00;49.50;;;;;;4413044;28;657384;-67
2021/04/10 10:30:11;;;;;;;4.67;2.57;;;18.30;50.00;;;;;;4367520;28;656575;-66
2021/04/10 10:32:59;;;;;;;5.53;2.43;;;18.40;48.40;;;;;;4367810;28;657460;-69
2021/04/10 10:35:50;;;;;;;6.70;2.47;;;18.40;48.40;;;;;;4406241;28;656918;-69
2021/04/10 10:38:40;;;;;;;7.57;2.50;;;18.40;48.90;;;;;;4391440;28;656639;-67
2021/04/10 10:41:28;;;;;;;4.80;2.37;;;18.60;49.30;;;;;;4394501;28;656384;-69
2021/04/10 10:44:21;;;;;;;5.90;2.37;;;18.70;47.80;;;;;;4410895;28;657095;-70
2021/04/10 10:47:10;;;;;;;9.03;2.40;;;19.00;50.10;;;;;;4394134;28;656289;-71
2021/04/10 10:49:58;;;;;;;4.70;2.47;;;19.50;50.50;;;;;;4394210;28;656752;-69
2021/04/10 10:52:46;;;;;;;5.93;2.70;;;19.10;49.40;;;;;;4412969;28;656328;-66
2021/04/10 10:55:35;;;;;;;5.50;2.43;;;19.00;47.00;;;;;;4394362;28;658226;-66
2021/04/10 10:58:23;;;;;;;6.00;2.53;;;19.00;46.40;;;;;;4392372;28;656582;-68
2021/04/10 11:01:17;;;;;;;4.73;2.27;;;19.20;48.20;;;;;;4413308;28;657356;-68
2021/04/10 11:04:09;;;;;;;4.73;2.40;;;19.30;47.60;;;;;;4390811;28;657185;-68
2021/04/10 11:06:57;;;;;;;5.87;2.83;;;19.40;47.80;;;;;;4377673;28;656746;-67
2021/04/10 11:09:44;;;;;;;4.83;2.37;;;19.60;50.00;;;;;;4410806;28;657308;-68
2021/04/10 11:12:31;;;;;;;5.00;2.27;;;19.70;45.90;;;;;;4398886;28;656622;-68
2021/04/10 11:15:19;;;;;;;4.30;2.27;;;19.60;46.30;;;;;;4430782;28;658123;-68
2021/04/10 11:18:06;;;;;;;4.97;2.50;;;19.50;46.40;;;;;;4428530;28;656468;-69
2021/04/10 11:21:13;;;;;;;5.90;2.60;;;19.50;46.70;;;;;;4430059;28;657775;-69
2021/04/10 11:24:14;;;;;;;8.27;2.60;;;19.60;45.70;;;;;;4407594;28;657464;-69
2021/04/10 11:27:11;;;;;;;5.67;2.40;;;19.70;45.50;;;;;;4390818;28;656817;-68
2021/04/10 11:29:59;;;;;;;4.13;2.03;;;20.00;47.80;;;;;;4384527;28;656312;-70
2021/04/10 11:32:47;;;;;;;6.97;2.40;;;20.30;44.80;;;;;;4416032;28;656624;-69
2021/04/10 11:35:41;;;;;;;5.93;2.23;;;20.80;44.60;;;;;;4430298;28;657819;-68
2021/04/10 11:39:11;;;;;;;4.87;2.17;;;20.90;44.70;;;;;;4407533;28;657454;-68
2021/04/10 11:41:58;;;;;;;8.30;2.43;;;20.80;43.50;;;;;;4405945;28;657410;-69
2021/04/10 11:44:45;;;;;;;4.00;1.93;;;20.50;44.40;;;;;;4428432;28;655860;-68
2021/04/10 11:47:33;;;;;;;6.30;2.33;;;20.70;41.70;;;;;;4411483;28;656496;-69
2021/04/10 11:50:22;;;;;;;6.00;2.23;;;20.50;43.00;;;;;;4427750;28;656438;-67
2021/04/10 11:53:13;;;;;;;5.70;2.20;;;20.10;41.60;;;;;;4407133;28;657222;-69
2021/04/10 11:56:22;;;;;;;5.37;2.10;;;19.90;42.90;;;;;;4408061;28;657175;-68
2021/04/10 11:59:09;;;;;;;5.60;2.20;;;19.80;42.70;;;;;;4410660;28;657473;-65
2021/04/10 12:02:00;;;;;;;7.60;2.37;;;19.60;41.90;;;;;;4414535;28;656809;-69
2021/04/10 12:04:48;;;;;;;4.03;2.40;;;19.20;41.50;;;;;;4414008;28;656466;-68
2021/04/10 12:07:35;;;;;;;6.60;2.30;;;19.50;41.50;;;;;;4433750;28;656852;-68
2021/04/10 12:10:22;;;;;;;4.87;2.10;;;20.00;43.40;;;;;;4411549;28;656759;-69
2021/04/10 12:13:11;;;;;;;5.57;2.40;;;20.30;43.70;;;;;;4433396;28;657197;-65
2021/04/10 12:15:59;;;;;;;5.70;2.23;;;20.40;41.80;;;;;;4410122;28;657531;-65
2021/04/10 12:18:46;;;;;;;9.63;2.97;;;20.10;40.90;;;;;;4431007;28;656948;-69
2021/04/10 12:21:34;;;;;;;5.63;2.50;;;19.80;41.40;;;;;;4437194;28;657460;-70
2021/04/10 12:24:23;;;;;;;8.33;2.70;;;19.80;41.30;;;;;;4431716;28;656497;-69
2021/04/10 12:27:11;;;;;;;3.83;2.20;;;19.90;44.60;;;;;;4432569;28;657346;-69
2021/04/10 12:30:01;;;;;;;6.20;2.10;;;20.40;41.70;;;;;;4410102;28;658042;-69
2021/04/10 12:32:52;;;;;;;6.10;2.70;;;20.70;40.80;;;;;;4414370;28;657530;-65
2021/04/10 12:35:40;;;;;;;4.20;2.10;;;20.40;41.60;;;;;;4410332;28;656643;-66
2021/04/10 12:38:28;;;;;;;5.23;2.57;;;20.30;41.70;;;;;;4410376;28;656590;-65
2021/04/10 12:41:16;;;;;;;6.70;3.07;;;20.10;43.20;;;;;;4433160;28;657552;-65
2021/04/10 12:44:03;;;;;;;4.13;2.57;;;19.80;41.20;;;;;;4410081;28;658556;-65
2021/04/10 12:46:52;;;;;;;7.53;2.87;;;20.10;42.70;;;;;;4432256;28;656263;-65
2021/04/10 12:49:39;;;;;;;7.70;2.53;;;19.90;40.80;;;;;;4409909;28;657427;-65
2021/04/10 12:52:27;;;;;;;6.23;3.00;;;20.00;42.10;;;;;;4430219;28;656201;-65
2021/04/10 12:55:15;;;;;;;7.80;2.47;;;20.10;40.80;;;;;;4433879;28;657321;-65
2021/04/10 12:58:02;;;;;;;7.30;3.00;;;20.10;40.70;;;;;;4413409;28;658024;-65
2021/04/10 13:00:49;;;;;;;4.13;2.20;;;20.20;40.50;;;;;;4436420;28;657016;-65
2021/04/10 13:04:03;;;;;;;5.67;2.70;;;20.50;43.80;;;;;;4420914;28;657126;-65
2021/04/10 13:06:51;;;;;;;9.10;3.10;;;20.50;43.20;;;;;;4408931;28;657075;-65
2021/04/10 13:09:43;;;;;;;5.07;2.20;;;20.60;41.10;;;;;;4413845;28;657242;-66
2021/04/10 13:12:30;;;;;;;5.63;2.60;;;20.50;42.00;;;;;;4409474;28;656675;-65
2021/04/10 13:15:17;;;;;;;7.97;2.50;;;20.10;40.00;;;;;;4413450;28;656791;-65
2021/04/10 13:18:05;;;;;;;5.23;2.80;;;20.10;40.60;;;;;;4431729;28;657438;-65
2021/04/10 13:20:53;;;;;;;6.77;2.60;;;20.20;41.20;;;;;;4412953;28;656556;-66
2021/04/10 13:23:41;;;;;;;5.37;2.37;;;20.80;42.00;;;;;;4431717;28;656611;-69
2021/04/10 13:26:28;;;;;;;5.10;2.40;;;21.00;39.60;;;;;;4413276;28;656315;-67
2021/04/10 13:29:15;;;;;;;5.17;2.83;;;20.90;41.70;;;;;;4427019;28;656324;-65
2021/04/10 13:32:03;;;;;;;5.87;2.80;;;20.50;42.90;;;;;;4395835;28;656496;-65
2021/04/10 13:34:50;;;;;;;5.67;2.80;;;20.70;40.80;;;;;;4414839;28;656533;-65
2021/04/10 13:37:38;;;;;;;8.97;2.93;;;20.90;40.50;;;;;;4394969;28;656763;-66
2021/04/10 13:40:25;;;;;;;6.03;2.70;;;20.60;40.80;;;;;;4414158;28;657916;-65
2021/04/10 13:43:13;;;;;;;6.90;2.97;;;20.60;41.40;;;;;;4391917;28;657344;-65
2021/04/10 13:46:00;;;;;;;5.20;2.30;;;20.20;40.20;;;;;;4414218;28;656489;-65
2021/04/10 13:48:48;;;;;;;5.60;2.83;;;19.70;41.90;;;;;;4394960;28;657417;-65
2021/04/10 13:51:35;;;;;;;6.10;2.60;;;19.40;42.30;;;;;;4413929;28;657042;-65
2021/04/10 13:54:23;;;;;;;3.73;2.20;;;19.70;44.20;;;;;;4395704;28;656504;-65
2021/04/10 13:57:10;;;;;;;8.17;2.70;;;20.10;42.20;;;;;;4413350;28;657533;-65
2021/04/10 13:59:57;;;;;;;7.95;2.38;;;20.40;42.40;;;;;;4390754;28;656464;-65
2021/04/10 14:02:45;;;;;;;9.87;2.70;;;20.50;41.60;;;;;;4413670;28;657309;-65
2021/04/10 14:05:33;;;;;;;6.17;3.17;;;20.50;41.30;;;;;;4395729;28;657142;-65
2021/04/10 14:08:21;;;;;;;4.90;2.50;;;20.50;41.90;;;;;;4414244;28;656419;-65
2021/04/10 14:11:08;;;;;;;4.90;2.47;;;20.10;42.10;;;;;;4395553;28;656555;-65
2021/04/10 14:13:55;;;;;;;7.43;3.20;;;19.40;41.60;;;;;;4428782;28;656487;-65
2021/04/10 14:16:42;;;;;;;5.83;2.33;;;19.10;43.60;;;;;;4412200;28;656704;-65
2021/04/10 14:19:30;;;;;;;5.80;2.33;;;19.50;43.20;;;;;;4430610;28;657182;-66
2021/04/10 14:22:18;;;;;;;5.73;2.80;;;19.60;42.30;;;;;;4412196;28;657212;-65
2021/04/10 14:25:06;;;;;;;6.30;3.10;;;19.30;42.80;;;;;;4431744;28;657223;-65
2021/04/10 14:27:54;;;;;;;5.97;2.77;;;19.30;44.40;;;;;;4408928;28;657762;-66
2021/04/10 14:30:43;;;;;;;7.13;2.90;;;19.80;44.50;;;;;;4401017;28;656860;-65
2021/04/10 14:33:31;;;;;;;6.23;2.80;;;20.30;42.40;;;;;;4413450;28;656954;-65
2021/04/10 14:36:22;;;;;;;7.63;2.67;;;20.60;41.60;;;;;;4390938;28;657769;-65
2021/04/10 14:39:10;;;;;;;5.77;2.50;;;21.20;42.20;;;;;;4390694;28;657921;-66
2021/04/10 14:41:58;;;;;;;7.63;2.30;;;21.50;41.90;;;;;;4394675;28;656135;-65
2021/04/10 14:45:12;;;;;;;5.43;2.57;;;21.10;41.00;;;;;;4407673;28;657052;-66
2021/04/10 14:48:24;;;;;;;6.20;2.63;;;20.70;41.60;;;;;;4387958;28;658093;-65
2021/04/10 14:54:39;;;;;;;11.23;2.70;;;20.80;40.20;;;;;;4412263;28;656619;-65
2021/04/10 14:57:27;;;;;;;5.63;2.53;;;20.60;41.30;;;;;;4410415;28;658059;-65
2021/04/10 15:00:15;;;;;;;5.90;2.80;;;20.90;40.80;;;;;;4430320;28;657178;-66
2021/04/10 15:03:04;;;;;;;7.60;2.60;;;21.00;40.90;;;;;;4412142;28;656671;-66
2021/04/10 15:05:56;;;;;;;6.25;2.25;;;21.00;39.60;;;;;;4415871;28;656633;-65
2021/04/10 15:08:43;;;;;;;8.43;2.60;;;21.20;42.00;;;;;;4412104;28;656811;-65
2021/04/10 15:11:31;;;;;;;5.13;2.70;;;21.60;40.50;;;;;;4430586;28;657330;-66
2021/04/10 15:14:18;;;;;;;4.73;2.43;;;21.60;39.70;;;;;;4407559;28;657914;-70
2021/04/10 15:17:05;;;;;;;9.40;3.30;;;21.50;40.70;;;;;;4417349;28;656449;-67
2021/04/10 15:19:52;;;;;;;6.90;3.00;;;21.10;40.20;;;;;;4376633;28;656594;-69
2021/04/10 15:22:39;;;;;;;8.03;2.97;;;21.00;40.30;;;;;;4398259;28;657072;-68
2021/04/10 15:25:26;;;;;;;6.23;2.80;;;20.90;40.50;;;;;;4384549;28;656370;-69
2021/04/10 15:28:14;;;;;;;5.30;2.73;;;21.00;39.60;;;;;;4395800;28;656400;-70
2021/04/10 15:31:07;;;;;;;5.30;2.10;;;20.90;39.80;;;;;;4421699;28;656529;-69
2021/04/10 15:33:54;;;;;;;7.37;3.30;;;20.50;39.40;;;;;;4409839;28;657279;-70
2021/04/10 15:36:41;;;;;;;6.23;2.70;;;20.00;40.80;;;;;;4413828;28;656550;-70
2021/04/10 15:39:28;;;;;;;6.00;2.43;;;19.60;40.30;;;;;;4432683;28;656521;-71
2021/04/10 15:42:15;;;;;;;6.13;2.63;;;19.40;41.60;;;;;;4430086;28;656326;-70
2021/04/10 15:45:04;;;;;;;7.07;2.87;;;19.10;41.30;;;;;;4413846;28;656789;-70
2021/04/10 15:47:51;;;;;;;9.43;4.30;;;19.10;41.50;;;;;;4423413;28;656647;-69